createdAt,value
2018-10-21T00:01:50.566Z,30.50
2018-10-21T00:04:17.938Z,30.32
2018-10-21T00:06:45.377Z,32.80
2018-10-21T00:09:13.367Z,36.23
2018-10-21T00:11:40.493Z,30.45
2018-10-21T00:14:08.219Z,32.58
2018-10-21T00:16:35.493Z,30.45
2018-10-21T00:19:02.886Z,32.78
2018-10-21T00:21:30.218Z,30.77
2018-10-21T00:23:57.598Z,28.95
2018-10-21T00:26:25.260Z,31.50
2018-10-21T00:28:52.529Z,30.62
2018-10-21T00:31:19.823Z,31.68
2018-10-21T00:33:47.151Z,30.27
2018-10-21T00:36:14.494Z,30.10
2018-10-21T00:38:41.845Z,28.67
2018-10-21T00:41:09.196Z,27.70
2018-10-21T00:43:36.503Z,31.17
2018-10-21T00:46:03.926Z,32.40
2018-10-21T00:48:31.241Z,28.40
2018-10-21T00:50:58.607Z,29.90
2018-10-21T00:53:25.991Z,29.52
2018-10-21T00:55:53.428Z,28.55
2018-10-21T00:58:21.342Z,29.85
2018-10-21T01:00:48.738Z,29.45
2018-10-21T01:03:16.081Z,26.65
2018-10-21T01:05:43.310Z,29.20
2018-10-21T01:08:10.632Z,31.77
2018-10-21T01:10:38.217Z,31.75
2018-10-21T01:13:05.549Z,29.95
2018-10-21T01:15:32.870Z,30.20
2018-10-21T01:18:00.168Z,29.18
2018-10-21T01:20:27.462Z,28.05
2018-10-21T01:22:54.741Z,27.30
2018-10-21T01:25:22.770Z,28.70
2018-10-21T01:27:50.122Z,30.32
2018-10-21T01:30:17.454Z,29.05
2018-10-21T01:32:44.826Z,27.60
2018-10-21T01:35:12.164Z,26.23
2018-10-21T01:37:39.494Z,31.62
2018-10-21T01:40:41.410Z,28.17
2018-10-21T01:43:09.524Z,26.80
2018-10-21T01:45:36.821Z,29.00
2018-10-21T01:48:05.344Z,26.85
2018-10-21T01:50:32.666Z,25.72
2018-10-21T01:53:01.265Z,30.08
2018-10-21T01:55:28.599Z,26.57
2018-10-21T01:57:56.875Z,32.15
2018-10-21T02:00:24.888Z,28.77
2018-10-21T02:02:52.495Z,26.57
2018-10-21T02:05:19.802Z,27.37
2018-10-21T02:07:47.100Z,28.62
2018-10-21T02:10:14.516Z,25.60
2018-10-21T02:12:41.914Z,26.85
2018-10-21T02:15:10.216Z,28.00
2018-10-21T02:17:37.436Z,27.17
2018-10-21T02:20:04.885Z,27.82
2018-10-21T02:22:32.167Z,25.72
2018-10-21T02:24:59.488Z,27.58
2018-10-21T02:27:26.754Z,25.92
2018-10-21T02:29:54.039Z,25.75
2018-10-21T02:32:21.543Z,28.87
2018-10-21T02:34:48.882Z,29.48
2018-10-21T02:37:16.254Z,27.58
2018-10-21T02:39:43.517Z,28.23
2018-10-21T02:42:10.872Z,28.07
2018-10-21T02:44:38.175Z,24.77
2018-10-21T02:47:05.466Z,27.15
2018-10-21T02:49:33.087Z,28.20
2018-10-21T02:52:05.820Z,28.10
2018-10-21T02:54:33.101Z,27.65
2018-10-21T02:57:00.465Z,27.13
2018-10-21T02:59:28.114Z,27.00
2018-10-21T03:01:55.456Z,28.65
2018-10-21T03:04:23.130Z,27.87
2018-10-21T03:06:50.741Z,27.02
2018-10-21T03:09:18.108Z,31.15
2018-10-21T03:11:45.454Z,27.77
2018-10-21T03:14:12.849Z,30.90
2018-10-21T03:16:40.373Z,29.50
2018-10-21T03:19:07.701Z,26.07
2018-10-21T03:21:35.174Z,28.32
2018-10-21T03:24:02.682Z,26.07
2018-10-21T03:26:29.934Z,25.77
2018-10-21T03:28:57.303Z,28.75
2018-10-21T03:31:25.524Z,29.30
2018-10-21T03:33:53.025Z,27.10
2018-10-21T03:36:20.164Z,27.75
2018-10-21T03:38:47.462Z,31.55
2018-10-21T03:41:14.774Z,28.07
2018-10-21T03:43:42.044Z,28.60
2018-10-21T03:46:11.608Z,28.83
2018-10-21T03:48:38.840Z,29.87
2018-10-21T03:51:06.123Z,25.35
2018-10-21T03:53:33.418Z,29.75
2018-10-21T03:56:00.698Z,29.40
2018-10-21T03:58:28.025Z,26.68
2018-10-21T04:00:55.369Z,26.80
2018-10-21T04:03:22.650Z,28.17
2018-10-21T04:05:49.931Z,29.77
2018-10-21T04:08:17.217Z,31.50
2018-10-21T04:10:44.535Z,25.57
2018-10-21T04:13:11.862Z,25.55
2018-10-21T04:15:39.138Z,28.73
2018-10-21T04:18:06.437Z,27.98
2018-10-21T04:20:33.743Z,26.87
2018-10-21T04:23:02.230Z,27.37
2018-10-21T04:25:30.706Z,27.10
2018-10-21T04:27:58.991Z,27.77
2018-10-21T04:30:28.357Z,27.40
2018-10-21T04:33:05.743Z,30.15
2018-10-21T04:35:33.462Z,28.12
2018-10-21T04:40:13.000Z,28.75
2018-10-21T04:42:40.515Z,31.93
2018-10-21T04:45:08.309Z,32.30
2018-10-21T04:47:35.634Z,29.95
2018-10-21T04:50:02.942Z,31.35
2018-10-21T04:52:31.741Z,28.80
2018-10-21T04:55:04.356Z,28.30
2018-10-21T04:57:31.751Z,28.55
2018-10-21T04:59:59.050Z,28.92
2018-10-21T05:02:26.546Z,27.55
2018-10-21T05:04:53.795Z,30.05
2018-10-21T05:07:21.188Z,30.43
2018-10-21T05:09:48.484Z,30.80
2018-10-21T05:12:15.806Z,28.30
2018-10-21T05:14:43.606Z,24.77
2018-10-21T05:17:11.447Z,31.57
2018-10-21T05:19:38.816Z,28.65
2018-10-21T05:22:06.608Z,28.60
2018-10-21T05:24:33.969Z,27.55
2018-10-21T05:27:01.253Z,28.67
2018-10-21T05:29:28.651Z,28.15
2018-10-21T05:31:55.973Z,30.50
2018-10-21T05:34:23.262Z,39.48
2018-10-21T05:36:50.527Z,34.73
2018-10-21T05:39:17.807Z,31.87
2018-10-21T05:41:45.279Z,33.45
2018-10-21T05:44:12.592Z,31.75
2018-10-21T05:46:41.921Z,30.55
2018-10-21T05:49:09.686Z,33.02
2018-10-21T05:51:37.279Z,30.77
2018-10-21T05:54:05.014Z,35.33
2018-10-21T05:56:32.305Z,34.63
2018-10-21T05:58:59.599Z,39.88
2018-10-21T06:01:26.906Z,36.05
2018-10-21T06:03:54.181Z,38.00
2018-10-21T06:06:21.487Z,35.35
2018-10-21T06:08:48.969Z,39.98
2018-10-21T06:11:16.253Z,38.08
2018-10-21T06:13:43.543Z,38.30
2018-10-21T06:16:10.895Z,34.98
2018-10-21T06:18:38.150Z,36.85
2018-10-21T06:21:05.998Z,37.25
2018-10-21T06:23:33.283Z,33.65
2018-10-21T06:26:00.575Z,33.63
2018-10-21T06:28:27.888Z,36.50
2018-10-21T06:30:55.190Z,32.08
2018-10-21T06:33:22.479Z,31.17
2018-10-21T06:35:49.804Z,34.75
2018-10-21T06:38:17.215Z,32.15
2018-10-21T06:40:44.530Z,30.27
2018-10-21T06:43:11.830Z,32.65
2018-10-21T06:45:39.127Z,32.15
2018-10-21T06:48:06.693Z,27.07
2018-10-21T06:50:34.150Z,33.15
2018-10-21T06:53:01.507Z,35.83
2018-10-21T06:55:28.795Z,30.20
2018-10-21T06:57:56.090Z,32.75
2018-10-21T07:00:23.401Z,32.10
2018-10-21T07:02:50.712Z,29.18
2018-10-21T07:05:24.030Z,30.37
2018-10-21T07:07:51.844Z,31.57
2018-10-21T07:10:19.846Z,33.48
2018-10-21T07:12:47.162Z,31.40
2018-10-21T07:15:14.606Z,30.82
2018-10-21T07:17:41.944Z,29.85
2018-10-21T07:20:09.851Z,35.85
2018-10-21T07:22:37.162Z,30.82
2018-10-21T07:25:04.930Z,32.17
2018-10-21T07:27:32.254Z,32.50
2018-10-21T07:29:59.596Z,31.57
2018-10-21T07:32:26.893Z,28.57
2018-10-21T07:34:54.231Z,33.45
2018-10-21T07:37:21.562Z,32.48
2018-10-21T07:39:48.885Z,32.40
2018-10-21T07:42:16.854Z,32.40
2018-10-21T07:44:44.204Z,30.02
2018-10-21T07:47:11.563Z,33.85
2018-10-21T07:49:38.859Z,37.23
2018-10-21T07:52:06.241Z,29.82
2018-10-21T07:54:33.511Z,32.83
2018-10-21T07:57:00.873Z,28.98
2018-10-21T07:59:28.176Z,28.67
2018-10-21T08:01:55.503Z,28.98
2018-10-21T08:04:22.780Z,32.00
2018-10-21T08:06:55.579Z,28.92
2018-10-21T08:09:22.986Z,28.12
2018-10-21T08:11:50.297Z,25.95
2018-10-21T08:14:17.575Z,27.30
2018-10-21T08:16:44.870Z,30.45
2018-10-21T08:19:12.258Z,28.05
2018-10-21T08:21:39.576Z,27.58
2018-10-21T08:24:06.871Z,26.68
2018-10-21T08:26:34.177Z,26.68
2018-10-21T08:29:01.468Z,27.80
2018-10-21T08:31:28.766Z,28.07
2018-10-21T08:33:56.083Z,29.00
2018-10-21T08:36:23.376Z,29.52
2018-10-21T08:38:50.778Z,34.75
2018-10-21T08:41:18.106Z,30.25
2018-10-21T08:43:45.411Z,27.85
2018-10-21T08:46:12.801Z,29.30
2018-10-21T08:48:39.994Z,27.25
2018-10-21T08:51:07.306Z,30.30
2018-10-21T08:53:34.710Z,30.65
2018-10-21T08:56:02.091Z,29.23
2018-10-21T08:58:29.404Z,29.72
2018-10-21T09:00:56.774Z,28.55
2018-10-21T09:03:24.024Z,28.02
2018-10-21T09:05:51.350Z,29.20
2018-10-21T09:08:18.639Z,30.80
2018-10-21T09:10:46.105Z,28.85
2018-10-21T09:13:13.400Z,27.85
2018-10-21T09:15:40.640Z,26.55
2018-10-21T09:18:07.961Z,29.72
2018-10-21T09:20:35.275Z,27.15
2018-10-21T09:23:02.851Z,29.10
2018-10-21T09:25:30.245Z,28.67
2018-10-21T09:27:57.556Z,29.60
2018-10-21T09:30:24.879Z,30.32
2018-10-21T09:32:52.212Z,26.70
2018-10-21T09:35:19.967Z,26.87
2018-10-21T09:37:47.298Z,31.33
2018-10-21T09:40:16.014Z,28.67
2018-10-21T09:42:43.914Z,30.10
2018-10-21T09:45:15.598Z,30.12
2018-10-21T09:47:43.514Z,34.80
2018-10-21T09:50:11.122Z,27.70
2018-10-21T09:52:38.415Z,28.90
2018-10-21T09:55:10.436Z,31.95
2018-10-21T09:57:37.692Z,29.75
2018-10-21T10:00:05.418Z,30.15
2018-10-21T10:02:38.215Z,30.55
2018-10-21T10:05:06.144Z,28.50
2018-10-21T10:07:33.451Z,29.92
2018-10-21T10:10:00.869Z,28.35
2018-10-21T10:12:28.219Z,29.30
2018-10-21T10:14:55.545Z,28.25
2018-10-21T10:17:22.856Z,29.07
2018-10-21T10:19:50.142Z,32.15
2018-10-21T10:22:17.524Z,31.40
2018-10-21T10:24:44.864Z,30.88
2018-10-21T10:27:12.182Z,31.40
2018-10-21T10:29:39.579Z,31.20
2018-10-21T10:32:07.141Z,28.55
2018-10-21T10:34:34.449Z,29.87
2018-10-21T10:37:01.736Z,30.68
2018-10-21T10:39:29.043Z,32.20
2018-10-21T10:41:56.438Z,29.17
2018-10-21T10:44:23.709Z,29.50
2018-10-21T10:46:50.993Z,30.43
2018-10-21T10:49:18.397Z,28.47
2018-10-21T10:51:45.630Z,29.60
2018-10-21T10:54:12.968Z,32.83
2018-10-21T10:56:40.281Z,30.35
2018-10-21T10:59:07.650Z,34.48
2018-10-21T11:01:34.977Z,26.80
2018-10-21T11:04:02.299Z,33.53
2018-10-21T11:06:29.556Z,31.45
2018-10-21T11:08:56.874Z,31.77
2018-10-21T11:11:24.174Z,32.48
2018-10-21T11:13:51.474Z,30.05
2018-10-21T11:16:18.880Z,30.37
2018-10-21T11:18:46.080Z,30.15
2018-10-21T11:21:13.640Z,29.72
2018-10-21T11:23:40.995Z,29.57
2018-10-21T11:26:08.303Z,27.87
2018-10-21T11:28:35.625Z,28.27
2018-10-21T11:31:02.939Z,29.77
2018-10-21T11:33:30.238Z,30.15
2018-10-21T11:35:57.822Z,26.55
2018-10-21T11:38:25.222Z,30.10
2018-10-21T11:40:52.548Z,26.15
2018-10-21T11:43:19.847Z,29.07
2018-10-21T11:45:47.224Z,27.73
2018-10-21T11:48:14.699Z,28.20
2018-10-21T11:50:42.439Z,23.52
2018-10-21T11:53:09.757Z,24.12
2018-10-21T11:55:37.098Z,25.15
2018-10-21T11:58:05.573Z,25.70
2018-10-21T12:00:32.850Z,26.52
2018-10-21T12:03:00.298Z,24.65
2018-10-21T12:05:27.664Z,26.30
2018-10-21T12:07:54.969Z,23.65
2018-10-21T12:10:22.312Z,25.55
2018-10-21T12:12:49.643Z,22.77
2018-10-21T12:15:17.423Z,22.32
2018-10-21T12:17:44.730Z,19.25
2018-10-21T12:20:12.066Z,21.02
2018-10-21T12:22:39.484Z,21.60
2018-10-21T12:25:06.864Z,20.37
2018-10-21T12:27:34.164Z,20.75
2018-10-21T12:30:01.457Z,21.80
2018-10-21T12:32:28.779Z,18.90
2018-10-21T12:34:56.124Z,21.10
2018-10-21T12:37:23.395Z,22.85
2018-10-21T12:39:51.055Z,19.45
2018-10-21T12:42:18.733Z,19.32
2018-10-21T12:44:46.073Z,22.93
2018-10-21T12:47:13.461Z,18.05
2018-10-21T12:49:40.694Z,19.23
2018-10-21T12:52:07.987Z,20.65
2018-10-21T12:54:35.400Z,19.30
2018-10-21T12:57:02.686Z,19.17
2018-10-21T12:59:30.043Z,21.25
2018-10-21T13:01:57.583Z,19.82
2018-10-21T13:04:24.897Z,18.27
2018-10-21T13:06:52.194Z,19.37
2018-10-21T13:09:19.790Z,18.37
2018-10-21T13:11:47.113Z,18.30
2018-10-21T13:14:14.425Z,19.40
2018-10-21T13:16:41.720Z,18.77
2018-10-21T13:19:09.091Z,17.17
2018-10-21T13:21:36.338Z,16.00
2018-10-21T13:24:03.725Z,17.12
2018-10-21T13:26:31.037Z,16.40
2018-10-21T13:28:58.420Z,16.85
2018-10-21T13:31:25.604Z,16.37
2018-10-21T13:33:52.979Z,16.60
2018-10-21T13:36:20.295Z,18.67
2018-10-21T13:38:47.665Z,17.55
2018-10-21T13:41:14.997Z,15.63
2018-10-21T13:43:42.285Z,17.02
2018-10-21T13:46:09.745Z,17.02
2018-10-21T13:48:37.088Z,17.20
2018-10-21T13:51:05.008Z,17.98
2018-10-21T13:53:32.427Z,17.60
2018-10-21T13:55:59.713Z,16.70
2018-10-21T13:58:27.042Z,18.20
2018-10-21T14:00:54.472Z,16.48
2018-10-21T14:03:21.724Z,16.15
2018-10-21T14:05:49.041Z,16.62
2018-10-21T14:08:16.472Z,17.82
2018-10-21T14:10:43.803Z,16.23
2018-10-21T14:13:11.143Z,16.12
2018-10-21T14:15:38.407Z,18.45
2018-10-21T14:18:05.713Z,21.25
2018-10-21T14:20:33.027Z,17.25
2018-10-21T14:23:00.366Z,18.20
2018-10-21T14:25:27.836Z,16.27
2018-10-21T14:27:55.140Z,17.32
2018-10-21T14:30:22.471Z,17.32
2018-10-21T14:32:49.738Z,16.80
2018-10-21T14:35:17.358Z,17.48
2018-10-21T14:37:44.683Z,18.77
2018-10-21T14:40:13.194Z,17.62
2018-10-21T14:42:40.920Z,16.35
2018-10-21T14:45:09.377Z,17.07
2018-10-21T14:47:36.939Z,18.00
2018-10-21T14:50:04.347Z,18.48
2018-10-21T14:52:31.607Z,16.97
2018-10-21T14:54:58.962Z,16.48
2018-10-21T14:57:26.367Z,16.70
2018-10-21T14:59:53.656Z,16.00
2018-10-21T15:02:20.953Z,17.65
2018-10-21T15:04:48.259Z,15.60
2018-10-21T15:07:15.586Z,17.07
2018-10-21T15:09:43.360Z,19.37
2018-10-21T15:12:10.672Z,18.48
2018-10-21T15:14:37.894Z,15.88
2018-10-21T15:17:05.590Z,17.00
2018-10-21T15:19:32.919Z,17.60
2018-10-21T15:22:00.241Z,18.92
2018-10-21T15:24:27.582Z,15.95
2018-10-21T15:26:54.899Z,17.42
2018-10-21T15:29:22.224Z,17.25
2018-10-21T15:31:49.520Z,17.23
2018-10-21T15:34:16.960Z,17.10
2018-10-21T15:36:44.156Z,15.45
2018-10-21T15:39:11.722Z,18.55
2018-10-21T15:41:39.528Z,16.20
2018-10-21T15:44:07.225Z,16.20
2018-10-21T15:46:34.533Z,16.77
2018-10-21T15:49:01.953Z,17.85
2018-10-21T15:51:29.242Z,16.37
2018-10-21T15:53:56.708Z,17.75
2018-10-21T15:56:23.996Z,21.95
2018-10-21T15:58:51.372Z,16.80
2018-10-21T16:01:18.757Z,18.07
2018-10-21T16:03:46.080Z,17.37
2018-10-21T16:06:13.508Z,19.37
2018-10-21T16:08:45.290Z,19.85
2018-10-21T16:11:13.190Z,16.80
2018-10-21T16:13:40.560Z,17.55
2018-10-21T16:16:08.063Z,17.27
2018-10-21T16:18:35.899Z,18.75
2018-10-21T16:21:03.473Z,16.02
2018-10-21T16:23:30.981Z,19.85
2018-10-21T16:25:58.517Z,17.23
2018-10-21T16:28:25.887Z,16.23
2018-10-21T16:30:53.842Z,16.25
2018-10-21T16:33:21.249Z,19.00
2018-10-21T16:35:48.852Z,17.30
2018-10-21T16:38:16.377Z,18.40
2018-10-21T16:40:43.954Z,18.20
2018-10-21T16:43:11.422Z,23.05
2018-10-21T16:45:41.814Z,19.57
2018-10-21T16:48:14.450Z,17.95
2018-10-21T16:50:42.151Z,17.52
2018-10-21T16:53:10.488Z,18.52
2018-10-21T16:55:42.933Z,19.90
2018-10-21T16:58:11.080Z,18.77
2018-10-21T17:00:39.010Z,21.55
2018-10-21T17:03:06.999Z,20.32
2018-10-21T17:05:34.383Z,21.02
2018-10-21T17:08:05.649Z,19.07
2018-10-21T17:10:38.679Z,24.45
2018-10-21T17:13:06.102Z,18.25
2018-10-21T17:15:33.548Z,22.75
2018-10-21T17:18:08.454Z,17.45
2018-10-21T17:20:36.040Z,19.55
2018-10-21T17:23:04.640Z,21.05
2018-10-21T17:25:32.012Z,17.70
2018-10-21T17:28:00.154Z,18.82
2018-10-21T17:30:31.775Z,20.65
2018-10-21T17:33:03.450Z,20.50
2018-10-21T17:35:30.937Z,17.48
2018-10-21T17:38:02.395Z,20.25
2018-10-21T17:43:01.496Z,19.10
2018-10-21T17:45:47.135Z,17.40
2018-10-21T17:51:46.544Z,16.27
2018-10-21T17:54:14.013Z,17.30
2018-10-21T17:56:46.913Z,18.32
2018-10-21T17:59:18.237Z,19.70
2018-10-21T18:01:49.773Z,16.52
2018-10-21T18:04:17.249Z,17.75
2018-10-21T18:06:45.812Z,20.57
2018-10-21T18:09:17.395Z,16.65
2018-10-21T18:11:45.601Z,16.48
2018-10-21T18:14:18.634Z,17.57
2018-10-21T18:16:46.369Z,19.10
2018-10-21T18:19:14.809Z,17.17
2018-10-21T18:21:42.309Z,20.10
2018-10-21T18:24:10.956Z,17.85
2018-10-21T18:26:42.838Z,19.62
2018-10-21T18:29:14.747Z,19.37
2018-10-21T18:31:42.181Z,21.75
2018-10-21T18:34:11.037Z,20.62
2018-10-21T18:36:44.664Z,18.73
2018-10-21T18:39:12.127Z,21.10
2018-10-21T18:41:40.483Z,21.73
2018-10-21T18:44:09.581Z,24.65
2018-10-21T18:46:39.007Z,20.62
2018-10-21T18:49:07.061Z,22.65
2018-10-21T18:51:35.082Z,21.40
2018-10-21T18:54:02.595Z,25.08
2018-10-21T18:56:30.607Z,21.20
2018-10-21T18:58:58.405Z,21.55
2018-10-21T19:01:26.293Z,20.43
2018-10-21T19:03:53.784Z,22.27
2018-10-21T19:06:23.122Z,20.20
2018-10-21T19:08:51.374Z,19.95
2018-10-21T19:11:20.400Z,20.02
2018-10-21T19:13:49.192Z,21.15
2018-10-21T19:16:22.763Z,21.02
2018-10-21T19:18:50.842Z,21.80
2018-10-21T19:21:18.577Z,22.35
2018-10-21T19:23:51.485Z,23.35
2018-10-21T19:26:23.604Z,25.40
2018-10-21T19:28:52.967Z,24.27
2018-10-21T19:31:22.568Z,23.80
2018-10-21T19:33:51.914Z,21.87
2018-10-21T19:36:24.496Z,23.25
2018-10-21T19:38:52.976Z,20.35
2018-10-21T19:41:22.443Z,21.42
2018-10-21T19:43:51.482Z,21.00
2018-10-21T19:46:24.919Z,21.23
2018-10-21T19:49:00.875Z,21.93
2018-10-21T19:53:56.200Z,22.40
2018-10-21T19:56:23.625Z,20.52
2018-10-21T19:58:51.080Z,21.80
2018-10-21T20:01:23.501Z,22.52
2018-10-21T20:03:50.982Z,22.32
2018-10-21T20:06:18.495Z,24.23
2018-10-21T20:08:51.066Z,24.20
2018-10-21T20:11:19.601Z,22.25
2018-10-21T20:13:47.079Z,22.85
2018-10-21T20:16:14.583Z,22.42
2018-10-21T20:18:42.379Z,23.00
2018-10-21T20:21:10.400Z,24.67
2018-10-21T20:23:39.217Z,25.12
2018-10-21T20:26:07.638Z,22.42
2018-10-21T20:28:39.473Z,24.82
2018-10-21T20:31:07.033Z,26.80
2018-10-21T20:33:45.289Z,25.48
2018-10-21T20:36:13.310Z,25.45
2018-10-21T20:38:45.118Z,22.90
2018-10-21T20:41:19.622Z,24.00
2018-10-21T20:43:47.140Z,28.45
2018-10-21T20:46:19.776Z,23.67
2018-10-21T20:48:48.416Z,25.95
2018-10-21T20:51:16.025Z,24.63
2018-10-21T20:53:47.908Z,23.15
2018-10-21T20:56:15.321Z,24.85
2018-10-21T20:58:43.226Z,25.00
2018-10-21T21:01:10.718Z,24.55
2018-10-21T21:03:38.611Z,26.80
2018-10-21T21:06:14.783Z,22.73
2018-10-21T21:08:42.482Z,26.97
2018-10-21T21:11:10.624Z,23.90
2018-10-21T21:13:38.145Z,27.25
2018-10-21T21:18:39.459Z,26.85
2018-10-21T21:21:06.907Z,25.05
2018-10-21T21:23:39.879Z,23.20
2018-10-21T21:26:11.698Z,28.52
2018-10-21T21:28:40.444Z,25.15
2018-10-21T21:31:07.934Z,24.63
2018-10-21T21:36:07.395Z,25.30
2018-10-21T21:38:35.178Z,24.07
2018-10-21T21:41:07.169Z,23.42
2018-10-21T21:43:34.618Z,24.95
2018-10-21T21:46:02.597Z,26.40
2018-10-21T21:48:30.058Z,26.30
2018-10-21T21:50:59.426Z,26.33
2018-10-21T21:53:27.480Z,27.98
2018-10-21T21:55:55.144Z,25.30
2018-10-21T21:58:24.101Z,24.23
2018-10-21T22:00:51.868Z,27.22
2018-10-21T22:03:19.333Z,28.00
2018-10-21T22:05:47.760Z,23.52
2018-10-21T22:08:15.178Z,25.65
2018-10-21T22:10:44.357Z,24.67
2018-10-21T22:13:11.860Z,22.90
2018-10-21T22:15:40.304Z,26.42
2018-10-21T22:18:13.254Z,26.07
2018-10-21T22:20:41.530Z,26.35
2018-10-21T22:23:15.044Z,24.60
2018-10-21T22:25:42.461Z,26.07
2018-10-21T22:28:09.903Z,25.52
2018-10-21T22:30:37.386Z,24.87
2018-10-21T22:33:06.990Z,26.65
2018-10-21T22:35:35.593Z,25.50
2018-10-21T22:38:03.581Z,25.15
2018-10-21T22:40:31.513Z,26.97
2018-10-21T22:43:03.770Z,24.82
2018-10-21T22:45:36.133Z,21.90
2018-10-21T22:48:05.719Z,23.95
2018-10-21T22:50:33.779Z,28.52
2018-10-21T22:53:01.359Z,25.17
2018-10-21T22:55:28.735Z,24.87
2018-10-21T22:57:56.149Z,28.12
2018-10-21T23:00:23.827Z,30.77
2018-10-21T23:02:53.594Z,27.15
2018-10-21T23:05:21.508Z,26.10
2018-10-21T23:07:51.039Z,25.37
2018-10-21T23:10:19.777Z,24.70
2018-10-21T23:12:47.374Z,26.30
2018-10-21T23:15:15.264Z,26.82
2018-10-21T23:17:42.755Z,24.85
2018-10-21T23:20:10.534Z,26.42
2018-10-21T23:22:38.009Z,26.75
2018-10-21T23:25:06.515Z,25.88
2018-10-21T23:27:33.933Z,27.22
2018-10-21T23:30:04.032Z,25.80
2018-10-21T23:32:31.421Z,23.77
2018-10-21T23:34:59.052Z,24.92
2018-10-21T23:37:26.884Z,23.52
2018-10-21T23:39:54.625Z,24.23
2018-10-21T23:42:26.476Z,22.32
2018-10-21T23:44:53.895Z,23.70
2018-10-21T23:47:21.833Z,25.62
2018-10-21T23:49:50.028Z,22.62
2018-10-21T23:52:17.512Z,23.65
2018-10-21T23:54:44.878Z,25.90
2018-10-21T23:57:12.799Z,24.43
2018-10-21T23:59:40.797Z,25.75
